sensor_id;sensor_type;location;lat;lon;timestamp;temperature;humidity
30148;DHT22;16960;49.404;8.248;2023-02-28T00:00:10;20.10;33.10
30148;DHT22;16960;49.404;8.248;2023-02-28T00:02:37;20.20;33.10
30148;DHT22;16960;49.404;8.248;2023-02-28T00:05:06;20.10;32.50
30148;DHT22;16960;49.404;8.248;2023-02-28T00:07:33;20.20;32.60
30148;DHT22;16960;49.404;8.248;2023-02-28T00:10:00;20.10;32.60
30148;DHT22;16960;49.404;8.248;2023-02-28T00:12:28;20.20;32.60
30148;DHT22;16960;49.404;8.248;2023-02-28T00:14:56;20.10;32.70
30148;DHT22;16960;49.404;8.248;2023-02-28T00:17:23;20.10;32.70
30148;DHT22;16960;49.404;8.248;2023-02-28T00:19:50;20.10;32.70
30148;DHT22;16960;49.404;8.248;2023-02-28T00:22:19;20.10;32.80
30148;DHT22;16960;49.404;8.248;2023-02-28T00:24:46;20.10;32.80
30148;DHT22;16960;49.404;8.248;2023-02-28T00:27:14;20.10;32.80
30148;DHT22;16960;49.404;8.248;2023-02-28T00:29:41;20.10;32.90
30148;DHT22;16960;49.404;8.248;2023-02-28T00:32:09;20.10;32.80
30148;DHT22;16960;49.404;8.248;2023-02-28T00:34:36;20.10;32.80
30148;DHT22;16960;49.404;8.248;2023-02-28T00:37:04;20.00;32.80
30148;DHT22;16960;49.404;8.248;2023-02-28T00:39:34;20.10;32.90
30148;DHT22;16960;49.404;8.248;2023-02-28T00:42:02;20.10;32.90
30148;DHT22;16960;49.404;8.248;2023-02-28T00:44:29;20.10;32.90
30148;DHT22;16960;49.404;8.248;2023-02-28T00:46:57;20.10;32.90
30148;DHT22;16960;49.404;8.248;2023-02-28T00:49:26;20.10;32.90
30148;DHT22;16960;49.404;8.248;2023-02-28T00:51:54;20.10;32.90
30148;DHT22;16960;49.404;8.248;2023-02-28T00:54:21;20.10;32.80
30148;DHT22;16960;49.404;8.248;2023-02-28T00:56:48;20.00;32.80
30148;DHT22;16960;49.404;8.248;2023-02-28T00:59:17;20.00;32.80
30148;DHT22;16960;49.404;8.248;2023-02-28T01:01:45;20.00;32.90
30148;DHT22;16960;49.404;8.248;2023-02-28T01:04:13;20.00;32.90
30148;DHT22;16960;49.404;8.248;2023-02-28T01:06:41;20.00;33.00
30148;DHT22;16960;49.404;8.248;2023-02-28T01:09:09;20.00;32.90
30148;DHT22;16960;49.404;8.248;2023-02-28T01:11:36;20.00;32.90
30148;DHT22;16960;49.404;8.248;2023-02-28T01:14:03;20.00;32.90
30148;DHT22;16960;49.404;8.248;2023-02-28T01:16:31;20.00;32.90
30148;DHT22;16960;49.404;8.248;2023-02-28T01:18:58;20.00;32.90
30148;DHT22;16960;49.404;8.248;2023-02-28T01:21:25;20.00;33.00
30148;DHT22;16960;49.404;8.248;2023-02-28T01:23:56;20.00;33.00
30148;DHT22;16960;49.404;8.248;2023-02-28T01:26:23;20.00;33.00
30148;DHT22;16960;49.404;8.248;2023-02-28T01:28:51;20.00;33.00
30148;DHT22;16960;49.404;8.248;2023-02-28T01:31:19;20.00;33.10
30148;DHT22;16960;49.404;8.248;2023-02-28T01:33:47;19.90;33.10
30148;DHT22;16960;49.404;8.248;2023-02-28T01:36:17;19.90;33.10
30148;DHT22;16960;49.404;8.248;2023-02-28T01:38:44;19.90;33.10
30148;DHT22;16960;49.404;8.248;2023-02-28T01:41:16;19.90;33.10
30148;DHT22;16960;49.404;8.248;2023-02-28T01:44:03;19.90;33.80
30148;DHT22;16960;49.404;8.248;2023-02-28T01:46:31;19.90;33.20
30148;DHT22;16960;49.404;8.248;2023-02-28T01:49:03;19.90;33.10
30148;DHT22;16960;49.404;8.248;2023-02-28T01:51:36;19.90;33.10
30148;DHT22;16960;49.404;8.248;2023-02-28T01:54:08;19.90;33.20
30148;DHT22;16960;49.404;8.248;2023-02-28T01:56:44;19.90;33.10
30148;DHT22;16960;49.404;8.248;2023-02-28T01:59:16;19.90;33.10
30148;DHT22;16960;49.404;8.248;2023-02-28T02:01:47;19.90;33.10
30148;DHT22;16960;49.404;8.248;2023-02-28T02:04:13;19.90;33.00
30148;DHT22;16960;49.404;8.248;2023-02-28T02:06:44;19.90;33.00
30148;DHT22;16960;49.404;8.248;2023-02-28T02:09:12;19.90;33.10
30148;DHT22;16960;49.404;8.248;2023-02-28T02:11:43;19.90;33.20
30148;DHT22;16960;49.404;8.248;2023-02-28T02:14:21;19.90;33.20
30148;DHT22;16960;49.404;8.248;2023-02-28T02:17:00;19.90;33.20
30148;DHT22;16960;49.404;8.248;2023-02-28T02:20:00;19.80;33.10
30148;DHT22;16960;49.404;8.248;2023-02-28T02:25:41;19.80;33.00
30148;DHT22;16960;49.404;8.248;2023-02-28T02:28:34;19.80;33.00
30148;DHT22;16960;49.404;8.248;2023-02-28T02:31:23;19.80;33.00
30148;DHT22;16960;49.404;8.248;2023-02-28T02:34:27;19.80;33.00
30148;DHT22;16960;49.404;8.248;2023-02-28T02:37:02;19.80;33.00
30148;DHT22;16960;49.404;8.248;2023-02-28T02:39:34;19.80;33.00
30148;DHT22;16960;49.404;8.248;2023-02-28T02:42:09;19.80;33.00
30148;DHT22;16960;49.404;8.248;2023-02-28T02:44:40;19.80;33.10
30148;DHT22;16960;49.404;8.248;2023-02-28T02:47:12;19.80;33.00
30148;DHT22;16960;49.404;8.248;2023-02-28T02:49:44;19.70;33.00
30148;DHT22;16960;49.404;8.248;2023-02-28T02:52:14;19.70;33.10
30148;DHT22;16960;49.404;8.248;2023-02-28T02:54:45;19.70;33.00
30148;DHT22;16960;49.404;8.248;2023-02-28T02:57:15;19.70;33.10
30148;DHT22;16960;49.404;8.248;2023-02-28T02:59:46;19.70;33.10
30148;DHT22;16960;49.404;8.248;2023-02-28T03:02:16;19.70;33.10
30148;DHT22;16960;49.404;8.248;2023-02-28T03:04:48;19.70;33.10
30148;DHT22;16960;49.404;8.248;2023-02-28T03:07:17;19.80;33.10
30148;DHT22;16960;49.404;8.248;2023-02-28T03:09:50;19.70;33.10
30148;DHT22;16960;49.404;8.248;2023-02-28T03:12:18;19.70;33.10
30148;DHT22;16960;49.404;8.248;2023-02-28T03:14:53;19.70;33.10
30148;DHT22;16960;49.404;8.248;2023-02-28T03:17:48;19.70;33.10
30148;DHT22;16960;49.404;8.248;2023-02-28T03:20:27;19.70;33.10
30148;DHT22;16960;49.404;8.248;2023-02-28T03:23:04;19.70;33.10
30148;DHT22;16960;49.404;8.248;2023-02-28T03:25:39;19.70;33.00
30148;DHT22;16960;49.404;8.248;2023-02-28T03:28:14;19.70;33.00
30148;DHT22;16960;49.404;8.248;2023-02-28T03:30:47;19.70;33.00
30148;DHT22;16960;49.404;8.248;2023-02-28T03:33:21;19.70;33.00
30148;DHT22;16960;49.404;8.248;2023-02-28T03:35:53;19.70;33.00
30148;DHT22;16960;49.404;8.248;2023-02-28T03:38:27;19.70;32.90
30148;DHT22;16960;49.404;8.248;2023-02-28T03:41:00;19.60;32.90
30148;DHT22;16960;49.404;8.248;2023-02-28T03:43:31;19.60;32.80
30148;DHT22;16960;49.404;8.248;2023-02-28T03:46:01;19.60;32.80
30148;DHT22;16960;49.404;8.248;2023-02-28T03:48:36;19.60;32.80
30148;DHT22;16960;49.404;8.248;2023-02-28T03:51:09;19.60;32.80
30148;DHT22;16960;49.404;8.248;2023-02-28T03:53:39;19.60;32.80
30148;DHT22;16960;49.404;8.248;2023-02-28T03:56:14;19.60;32.80
30148;DHT22;16960;49.404;8.248;2023-02-28T03:58:46;19.60;32.80
30148;DHT22;16960;49.404;8.248;2023-02-28T04:01:20;19.60;32.70
30148;DHT22;16960;49.404;8.248;2023-02-28T04:03:47;19.60;32.80
30148;DHT22;16960;49.404;8.248;2023-02-28T04:06:18;19.60;32.80
30148;DHT22;16960;49.404;8.248;2023-02-28T04:08:47;19.60;33.40
30148;DHT22;16960;49.404;8.248;2023-02-28T04:11:19;19.60;32.80
30148;DHT22;16960;49.404;8.248;2023-02-28T04:13:47;19.60;32.80
30148;DHT22;16960;49.404;8.248;2023-02-28T04:16:15;19.60;32.80
30148;DHT22;16960;49.404;8.248;2023-02-28T04:18:42;19.60;32.80
30148;DHT22;16960;49.404;8.248;2023-02-28T04:21:10;19.60;32.80
30148;DHT22;16960;49.404;8.248;2023-02-28T04:23:39;19.60;32.80
30148;DHT22;16960;49.404;8.248;2023-02-28T04:26:06;19.50;32.80
30148;DHT22;16960;49.404;8.248;2023-02-28T04:28:33;19.60;32.90
30148;DHT22;16960;49.404;8.248;2023-02-28T04:31:03;19.60;32.90
30148;DHT22;16960;49.404;8.248;2023-02-28T04:33:31;19.50;32.90
30148;DHT22;16960;49.404;8.248;2023-02-28T04:35:59;19.50;33.50
30148;DHT22;16960;49.404;8.248;2023-02-28T04:38:26;19.50;33.00
30148;DHT22;16960;49.404;8.248;2023-02-28T04:40:57;19.50;33.00
30148;DHT22;16960;49.404;8.248;2023-02-28T04:43:24;19.50;33.10
30148;DHT22;16960;49.404;8.248;2023-02-28T04:45:52;19.50;33.00
30148;DHT22;16960;49.404;8.248;2023-02-28T04:48:20;19.50;33.10
30148;DHT22;16960;49.404;8.248;2023-02-28T04:50:46;19.50;33.00
30148;DHT22;16960;49.404;8.248;2023-02-28T04:53:13;19.50;33.00
30148;DHT22;16960;49.404;8.248;2023-02-28T04:55:40;19.50;33.00
30148;DHT22;16960;49.404;8.248;2023-02-28T04:58:09;19.50;33.00
30148;DHT22;16960;49.404;8.248;2023-02-28T05:00:36;19.50;33.00
30148;DHT22;16960;49.404;8.248;2023-02-28T05:03:03;19.50;33.00
30148;DHT22;16960;49.404;8.248;2023-02-28T05:05:30;19.50;33.00
30148;DHT22;16960;49.404;8.248;2023-02-28T05:07:56;19.40;32.90
30148;DHT22;16960;49.404;8.248;2023-02-28T05:10:23;19.50;32.90
30148;DHT22;16960;49.404;8.248;2023-02-28T05:12:50;19.50;32.80
30148;DHT22;16960;49.404;8.248;2023-02-28T05:15:19;19.50;32.80
30148;DHT22;16960;49.404;8.248;2023-02-28T05:17:45;19.50;32.70
30148;DHT22;16960;49.404;8.248;2023-02-28T05:20:13;19.60;32.60
30148;DHT22;16960;49.404;8.248;2023-02-28T05:22:40;19.60;32.60
30148;DHT22;16960;49.404;8.248;2023-02-28T05:25:09;19.60;32.60
30148;DHT22;16960;49.404;8.248;2023-02-28T05:27:37;19.70;32.70
30148;DHT22;16960;49.404;8.248;2023-02-28T05:30:05;19.70;32.60
30148;DHT22;16960;49.404;8.248;2023-02-28T05:32:37;19.80;32.50
30148;DHT22;16960;49.404;8.248;2023-02-28T05:35:04;19.80;32.50
30148;DHT22;16960;49.404;8.248;2023-02-28T05:37:31;19.80;32.40
30148;DHT22;16960;49.404;8.248;2023-02-28T05:39:58;19.80;32.40
30148;DHT22;16960;49.404;8.248;2023-02-28T05:42:25;19.90;32.40
30148;DHT22;16960;49.404;8.248;2023-02-28T05:44:52;19.90;32.30
30148;DHT22;16960;49.404;8.248;2023-02-28T05:47:19;19.90;32.30
30148;DHT22;16960;49.404;8.248;2023-02-28T05:49:47;20.00;32.30
30148;DHT22;16960;49.404;8.248;2023-02-28T05:52:14;19.90;32.80
30148;DHT22;16960;49.404;8.248;2023-02-28T05:54:41;20.00;32.20
30148;DHT22;16960;49.404;8.248;2023-02-28T05:57:08;20.10;32.40
30148;DHT22;16960;49.404;8.248;2023-02-28T05:59:35;20.00;32.30
30148;DHT22;16960;49.404;8.248;2023-02-28T06:02:05;20.10;32.30
30148;DHT22;16960;49.404;8.248;2023-02-28T06:04:32;20.10;32.20
30148;DHT22;16960;49.404;8.248;2023-02-28T06:07:01;20.10;32.20
30148;DHT22;16960;49.404;8.248;2023-02-28T06:09:28;20.10;32.20
30148;DHT22;16960;49.404;8.248;2023-02-28T06:11:57;20.10;32.10
30148;DHT22;16960;49.404;8.248;2023-02-28T06:14:24;20.20;32.10
30148;DHT22;16960;49.404;8.248;2023-02-28T06:16:52;20.20;32.10
30148;DHT22;16960;49.404;8.248;2023-02-28T06:19:19;20.20;32.00
30148;DHT22;16960;49.404;8.248;2023-02-28T06:21:49;20.30;32.10
30148;DHT22;16960;49.404;8.248;2023-02-28T06:24:19;20.30;32.10
30148;DHT22;16960;49.404;8.248;2023-02-28T06:26:46;20.30;32.00
30148;DHT22;16960;49.404;8.248;2023-02-28T06:29:13;20.30;32.00
30148;DHT22;16960;49.404;8.248;2023-02-28T06:31:43;20.30;32.00
30148;DHT22;16960;49.404;8.248;2023-02-28T06:34:10;20.30;32.00
30148;DHT22;16960;49.404;8.248;2023-02-28T06:36:38;20.30;32.00
30148;DHT22;16960;49.404;8.248;2023-02-28T06:39:05;20.40;32.00
30148;DHT22;16960;49.404;8.248;2023-02-28T06:41:34;20.40;32.00
30148;DHT22;16960;49.404;8.248;2023-02-28T06:44:03;20.40;31.90
30148;DHT22;16960;49.404;8.248;2023-02-28T06:46:31;20.50;31.90
30148;DHT22;16960;49.404;8.248;2023-02-28T06:48:58;20.50;31.90
30148;DHT22;16960;49.404;8.248;2023-02-28T06:51:25;20.50;31.70
30148;DHT22;16960;49.404;8.248;2023-02-28T06:53:52;20.60;31.50
30148;DHT22;16960;49.404;8.248;2023-02-28T06:56:19;20.60;31.40
30148;DHT22;16960;49.404;8.248;2023-02-28T06:58:49;20.60;31.20
30148;DHT22;16960;49.404;8.248;2023-02-28T07:01:16;20.60;31.10
30148;DHT22;16960;49.404;8.248;2023-02-28T07:03:44;20.60;30.90
30148;DHT22;16960;49.404;8.248;2023-02-28T07:06:11;20.60;30.90
30148;DHT22;16960;49.404;8.248;2023-02-28T07:08:39;20.60;30.80
30148;DHT22;16960;49.404;8.248;2023-02-28T07:11:06;20.60;30.60
30148;DHT22;16960;49.404;8.248;2023-02-28T07:13:33;20.70;30.60
30148;DHT22;16960;49.404;8.248;2023-02-28T07:16:03;20.60;30.40
30148;DHT22;16960;49.404;8.248;2023-02-28T07:18:31;20.70;30.70
30148;DHT22;16960;49.404;8.248;2023-02-28T07:21:02;20.70;30.60
30148;DHT22;16960;49.404;8.248;2023-02-28T07:23:29;20.80;30.30
30148;DHT22;16960;49.404;8.248;2023-02-28T07:25:56;20.80;30.40
30148;DHT22;16960;49.404;8.248;2023-02-28T07:28:23;20.80;30.50
30148;DHT22;16960;49.404;8.248;2023-02-28T07:30:50;20.90;30.50
30148;DHT22;16960;49.404;8.248;2023-02-28T07:33:18;20.90;30.20
30148;DHT22;16960;49.404;8.248;2023-02-28T07:35:45;20.90;30.20
30148;DHT22;16960;49.404;8.248;2023-02-28T07:38:12;21.00;30.10
30148;DHT22;16960;49.404;8.248;2023-02-28T07:40:40;21.00;29.80
30148;DHT22;16960;49.404;8.248;2023-02-28T07:43:07;21.10;29.80
30148;DHT22;16960;49.404;8.248;2023-02-28T07:45:34;21.00;29.70
30148;DHT22;16960;49.404;8.248;2023-02-28T07:48:01;21.00;29.60
30148;DHT22;16960;49.404;8.248;2023-02-28T07:50:30;21.00;29.50
30148;DHT22;16960;49.404;8.248;2023-02-28T07:52:58;21.00;29.50
30148;DHT22;16960;49.404;8.248;2023-02-28T07:55:25;21.10;29.50
30148;DHT22;16960;49.404;8.248;2023-02-28T07:57:52;21.10;29.50
30148;DHT22;16960;49.404;8.248;2023-02-28T08:00:20;21.10;29.60
30148;DHT22;16960;49.404;8.248;2023-02-28T08:02:47;21.10;29.70
30148;DHT22;16960;49.404;8.248;2023-02-28T08:05:14;21.10;29.80
30148;DHT22;16960;49.404;8.248;2023-02-28T08:07:42;21.10;29.60
30148;DHT22;16960;49.404;8.248;2023-02-28T08:10:10;21.10;29.60
30148;DHT22;16960;49.404;8.248;2023-02-28T08:12:37;21.00;29.20
30148;DHT22;16960;49.404;8.248;2023-02-28T08:15:05;21.10;29.10
30148;DHT22;16960;49.404;8.248;2023-02-28T08:17:32;21.10;29.10
30148;DHT22;16960;49.404;8.248;2023-02-28T08:19:59;21.10;29.10
30148;DHT22;16960;49.404;8.248;2023-02-28T08:22:26;21.10;29.60
30148;DHT22;16960;49.404;8.248;2023-02-28T08:24:54;21.10;29.00
30148;DHT22;16960;49.404;8.248;2023-02-28T08:27:21;21.20;29.00
30148;DHT22;16960;49.404;8.248;2023-02-28T08:29:48;21.20;29.00
30148;DHT22;16960;49.404;8.248;2023-02-28T08:32:15;21.20;29.20
30148;DHT22;16960;49.404;8.248;2023-02-28T08:34:42;21.20;29.00
30148;DHT22;16960;49.404;8.248;2023-02-28T08:37:09;21.20;29.20
30148;DHT22;16960;49.404;8.248;2023-02-28T08:39:37;21.20;29.30
30148;DHT22;16960;49.404;8.248;2023-02-28T08:42:05;21.20;29.30
30148;DHT22;16960;49.404;8.248;2023-02-28T08:44:32;21.20;29.30
30148;DHT22;16960;49.404;8.248;2023-02-28T08:47:00;21.20;29.00
30148;DHT22;16960;49.404;8.248;2023-02-28T08:49:27;21.20;28.90
30148;DHT22;16960;49.404;8.248;2023-02-28T08:51:54;21.20;29.00
30148;DHT22;16960;49.404;8.248;2023-02-28T08:54:22;21.20;29.10
30148;DHT22;16960;49.404;8.248;2023-02-28T08:56:50;21.20;28.90
30148;DHT22;16960;49.404;8.248;2023-02-28T08:59:18;21.30;29.00
30148;DHT22;16960;49.404;8.248;2023-02-28T09:01:45;21.30;29.10
30148;DHT22;16960;49.404;8.248;2023-02-28T09:04:12;21.30;29.30
30148;DHT22;16960;49.404;8.248;2023-02-28T09:06:39;21.30;29.60
30148;DHT22;16960;49.404;8.248;2023-02-28T09:09:06;21.30;29.50
30148;DHT22;16960;49.404;8.248;2023-02-28T09:11:35;21.40;29.50
30148;DHT22;16960;49.404;8.248;2023-02-28T09:14:03;21.40;29.60
30148;DHT22;16960;49.404;8.248;2023-02-28T09:16:32;21.50;29.70
30148;DHT22;16960;49.404;8.248;2023-02-28T09:18:59;21.50;29.80
30148;DHT22;16960;49.404;8.248;2023-02-28T09:21:27;21.50;29.80
30148;DHT22;16960;49.404;8.248;2023-02-28T09:23:54;21.50;29.80
30148;DHT22;16960;49.404;8.248;2023-02-28T09:26:22;21.50;30.30
30148;DHT22;16960;49.404;8.248;2023-02-28T09:28:50;21.50;30.30
30148;DHT22;16960;49.404;8.248;2023-02-28T09:31:18;21.60;30.10
30148;DHT22;16960;49.404;8.248;2023-02-28T09:33:49;21.70;30.30
30148;DHT22;16960;49.404;8.248;2023-02-28T09:36:16;21.70;30.20
30148;DHT22;16960;49.404;8.248;2023-02-28T09:38:43;21.70;30.20
30148;DHT22;16960;49.404;8.248;2023-02-28T09:41:13;21.70;31.00
30148;DHT22;16960;49.404;8.248;2023-02-28T09:43:44;21.70;30.40
30148;DHT22;16960;49.404;8.248;2023-02-28T09:46:21;21.80;30.40
30148;DHT22;16960;49.404;8.248;2023-02-28T09:48:54;21.80;30.30
30148;DHT22;16960;49.404;8.248;2023-02-28T09:51:33;21.80;30.40
30148;DHT22;16960;49.404;8.248;2023-02-28T09:54:03;21.90;30.30
30148;DHT22;16960;49.404;8.248;2023-02-28T09:56:33;21.90;30.40
30148;DHT22;16960;49.404;8.248;2023-02-28T09:59:05;21.80;30.40
30148;DHT22;16960;49.404;8.248;2023-02-28T10:01:41;21.90;30.50
30148;DHT22;16960;49.404;8.248;2023-02-28T10:04:20;21.80;30.60
30148;DHT22;16960;49.404;8.248;2023-02-28T10:06:51;21.90;30.50
30148;DHT22;16960;49.404;8.248;2023-02-28T10:09:22;21.90;30.50
30148;DHT22;16960;49.404;8.248;2023-02-28T10:11:52;21.80;30.40
30148;DHT22;16960;49.404;8.248;2023-02-28T10:14:22;21.80;30.50
30148;DHT22;16960;49.404;8.248;2023-02-28T10:16:53;21.80;30.60
30148;DHT22;16960;49.404;8.248;2023-02-28T10:19:25;21.80;30.60
30148;DHT22;16960;49.404;8.248;2023-02-28T10:22:00;21.80;30.60
30148;DHT22;16960;49.404;8.248;2023-02-28T10:24:30;21.80;30.60
30148;DHT22;16960;49.404;8.248;2023-02-28T10:27:01;21.80;30.60
30148;DHT22;16960;49.404;8.248;2023-02-28T10:29:31;21.80;30.60
30148;DHT22;16960;49.404;8.248;2023-02-28T10:32:01;21.70;30.60
30148;DHT22;16960;49.404;8.248;2023-02-28T10:34:30;21.70;30.70
30148;DHT22;16960;49.404;8.248;2023-02-28T10:36:59;21.70;30.70
30148;DHT22;16960;49.404;8.248;2023-02-28T10:39:41;21.70;30.70
30148;DHT22;16960;49.404;8.248;2023-02-28T10:42:20;21.70;30.60
30148;DHT22;16960;49.404;8.248;2023-02-28T10:44:47;21.70;30.70
30148;DHT22;16960;49.404;8.248;2023-02-28T10:47:17;21.70;30.70
30148;DHT22;16960;49.404;8.248;2023-02-28T10:49:49;21.70;30.60
30148;DHT22;16960;49.404;8.248;2023-02-28T10:52:33;21.70;30.70
30148;DHT22;16960;49.404;8.248;2023-02-28T10:55:21;21.70;30.70
30148;DHT22;16960;49.404;8.248;2023-02-28T10:57:49;21.70;30.70
30148;DHT22;16960;49.404;8.248;2023-02-28T11:00:18;21.70;30.70
30148;DHT22;16960;49.404;8.248;2023-02-28T11:02:45;21.70;30.70
30148;DHT22;16960;49.404;8.248;2023-02-28T11:05:28;21.70;30.80
30148;DHT22;16960;49.404;8.248;2023-02-28T11:07:59;21.70;30.80
30148;DHT22;16960;49.404;8.248;2023-02-28T11:10:31;21.70;30.80
30148;DHT22;16960;49.404;8.248;2023-02-28T11:13:00;21.80;30.80
30148;DHT22;16960;49.404;8.248;2023-02-28T11:15:29;21.80;30.70
30148;DHT22;16960;49.404;8.248;2023-02-28T11:17:59;21.80;30.70
30148;DHT22;16960;49.404;8.248;2023-02-28T11:20:31;21.80;30.70
30148;DHT22;16960;49.404;8.248;2023-02-28T11:23:02;21.80;30.70
30148;DHT22;16960;49.404;8.248;2023-02-28T11:25:30;21.80;30.70
30148;DHT22;16960;49.404;8.248;2023-02-28T11:28:00;21.80;30.60
30148;DHT22;16960;49.404;8.248;2023-02-28T11:30:33;21.90;30.60
30148;DHT22;16960;49.404;8.248;2023-02-28T11:33:01;21.90;30.60
30148;DHT22;16960;49.404;8.248;2023-02-28T11:35:43;21.90;30.50
30148;DHT22;16960;49.404;8.248;2023-02-28T11:38:12;21.90;30.50
30148;DHT22;16960;49.404;8.248;2023-02-28T11:40:45;22.00;30.50
30148;DHT22;16960;49.404;8.248;2023-02-28T11:43:23;22.00;30.70
30148;DHT22;16960;49.404;8.248;2023-02-28T11:46:05;22.00;30.50
30148;DHT22;16960;49.404;8.248;2023-02-28T11:48:40;22.10;30.50
30148;DHT22;16960;49.404;8.248;2023-02-28T11:51:15;22.10;30.40
30148;DHT22;16960;49.404;8.248;2023-02-28T11:54:11;22.20;30.40
30148;DHT22;16960;49.404;8.248;2023-02-28T11:56:46;22.20;30.40
30148;DHT22;16960;49.404;8.248;2023-02-28T11:59:29;22.30;30.40
30148;DHT22;16960;49.404;8.248;2023-02-28T12:02:15;22.30;30.40
30148;DHT22;16960;49.404;8.248;2023-02-28T12:04:58;22.30;30.30
30148;DHT22;16960;49.404;8.248;2023-02-28T12:07:36;22.30;30.30
30148;DHT22;16960;49.404;8.248;2023-02-28T12:10:11;22.40;30.40
30148;DHT22;16960;49.404;8.248;2023-02-28T12:12:50;22.40;30.30
30148;DHT22;16960;49.404;8.248;2023-02-28T12:18:53;22.40;30.30
30148;DHT22;16960;49.404;8.248;2023-02-28T12:21:29;22.40;30.30
30148;DHT22;16960;49.404;8.248;2023-02-28T12:24:11;22.40;30.30
30148;DHT22;16960;49.404;8.248;2023-02-28T12:26:40;22.40;30.30
30148;DHT22;16960;49.404;8.248;2023-02-28T12:29:14;22.40;30.30
30148;DHT22;16960;49.404;8.248;2023-02-28T12:31:48;22.40;30.30
30148;DHT22;16960;49.404;8.248;2023-02-28T12:34:19;22.50;30.40
30148;DHT22;16960;49.404;8.248;2023-02-28T12:36:47;22.40;30.20
30148;DHT22;16960;49.404;8.248;2023-02-28T12:39:20;22.50;30.30
30148;DHT22;16960;49.404;8.248;2023-02-28T12:41:54;22.50;30.30
30148;DHT22;16960;49.404;8.248;2023-02-28T12:44:27;22.50;30.30
30148;DHT22;16960;49.404;8.248;2023-02-28T12:46:59;22.50;30.30
30148;DHT22;16960;49.404;8.248;2023-02-28T12:49:30;22.50;30.30
30148;DHT22;16960;49.404;8.248;2023-02-28T12:51:59;22.50;30.20
30148;DHT22;16960;49.404;8.248;2023-02-28T12:54:31;22.40;30.10
30148;DHT22;16960;49.404;8.248;2023-02-28T12:57:06;22.50;30.30
30148;DHT22;16960;49.404;8.248;2023-02-28T12:59:39;22.40;30.30
30148;DHT22;16960;49.404;8.248;2023-02-28T13:02:28;22.40;30.20
30148;DHT22;16960;49.404;8.248;2023-02-28T13:05:26;22.40;30.20
30148;DHT22;16960;49.404;8.248;2023-02-28T13:10:58;22.40;30.30
30148;DHT22;16960;49.404;8.248;2023-02-28T13:13:26;22.40;30.30
30148;DHT22;16960;49.404;8.248;2023-02-28T13:16:00;22.40;30.20
30148;DHT22;16960;49.404;8.248;2023-02-28T13:18:31;22.40;30.20
30148;DHT22;16960;49.404;8.248;2023-02-28T13:21:00;22.40;30.20
30148;DHT22;16960;49.404;8.248;2023-02-28T13:23:57;22.40;30.20
30148;DHT22;16960;49.404;8.248;2023-02-28T13:29:31;22.40;30.20
30148;DHT22;16960;49.404;8.248;2023-02-28T13:32:29;22.40;30.20
30148;DHT22;16960;49.404;8.248;2023-02-28T13:38:23;22.40;30.20
30148;DHT22;16960;49.404;8.248;2023-02-28T13:40:51;22.40;30.20
30148;DHT22;16960;49.404;8.248;2023-02-28T13:43:18;22.40;30.20
30148;DHT22;16960;49.404;8.248;2023-02-28T13:46:10;22.30;30.20
30148;DHT22;16960;49.404;8.248;2023-02-28T13:48:37;22.30;30.30
30148;DHT22;16960;49.404;8.248;2023-02-28T13:51:39;22.40;30.30
30148;DHT22;16960;49.404;8.248;2023-02-28T13:54:23;22.40;30.20
30148;DHT22;16960;49.404;8.248;2023-02-28T13:57:02;22.40;30.20
30148;DHT22;16960;49.404;8.248;2023-02-28T13:59:37;22.40;30.20
30148;DHT22;16960;49.404;8.248;2023-02-28T14:05:17;22.40;30.20
30148;DHT22;16960;49.404;8.248;2023-02-28T14:07:50;22.40;30.10
30148;DHT22;16960;49.404;8.248;2023-02-28T14:10:24;22.40;30.10
30148;DHT22;16960;49.404;8.248;2023-02-28T14:13:03;22.40;30.10
30148;DHT22;16960;49.404;8.248;2023-02-28T14:16:03;22.50;30.20
30148;DHT22;16960;49.404;8.248;2023-02-28T14:18:34;22.40;30.10
30148;DHT22;16960;49.404;8.248;2023-02-28T14:21:09;22.40;30.10
30148;DHT22;16960;49.404;8.248;2023-02-28T14:27:04;22.50;30.30
30148;DHT22;16960;49.404;8.248;2023-02-28T14:32:44;22.40;30.20
30148;DHT22;16960;49.404;8.248;2023-02-28T14:35:35;22.40;30.30
30148;DHT22;16960;49.404;8.248;2023-02-28T14:38:13;22.40;30.20
30148;DHT22;16960;49.404;8.248;2023-02-28T14:40:41;22.40;30.20
30148;DHT22;16960;49.404;8.248;2023-02-28T14:43:20;22.40;30.20
30148;DHT22;16960;49.404;8.248;2023-02-28T14:45:50;22.40;30.30
30148;DHT22;16960;49.404;8.248;2023-02-28T14:48:19;22.40;30.20
30148;DHT22;16960;49.404;8.248;2023-02-28T14:50:52;22.40;30.20
30148;DHT22;16960;49.404;8.248;2023-02-28T14:53:21;22.40;30.20
30148;DHT22;16960;49.404;8.248;2023-02-28T14:55:49;22.30;30.20
30148;DHT22;16960;49.404;8.248;2023-02-28T14:58:24;22.40;30.80
30148;DHT22;16960;49.404;8.248;2023-02-28T15:00:53;22.40;30.20
30148;DHT22;16960;49.404;8.248;2023-02-28T15:03:23;22.30;30.20
30148;DHT22;16960;49.404;8.248;2023-02-28T15:05:56;22.30;30.20
30148;DHT22;16960;49.404;8.248;2023-02-28T15:08:24;22.30;30.30
30148;DHT22;16960;49.404;8.248;2023-02-28T15:10:56;22.30;30.30
30148;DHT22;16960;49.404;8.248;2023-02-28T15:13:30;22.30;30.30
30148;DHT22;16960;49.404;8.248;2023-02-28T15:15:59;22.30;30.30
30148;DHT22;16960;49.404;8.248;2023-02-28T15:18:32;22.30;30.30
30148;DHT22;16960;49.404;8.248;2023-02-28T15:21:06;22.30;30.30
30148;DHT22;16960;49.404;8.248;2023-02-28T15:23:35;22.40;30.30
30148;DHT22;16960;49.404;8.248;2023-02-28T15:26:03;22.40;30.30
30148;DHT22;16960;49.404;8.248;2023-02-28T15:28:30;22.40;29.90
30148;DHT22;16960;49.404;8.248;2023-02-28T15:30:59;22.40;29.40
30148;DHT22;16960;49.404;8.248;2023-02-28T15:33:27;22.50;29.70
30148;DHT22;16960;49.404;8.248;2023-02-28T15:36:09;22.50;29.80
30148;DHT22;16960;49.404;8.248;2023-02-28T15:38:37;22.50;30.00
30148;DHT22;16960;49.404;8.248;2023-02-28T15:41:04;22.50;30.10
30148;DHT22;16960;49.404;8.248;2023-02-28T15:43:35;22.50;30.10
30148;DHT22;16960;49.404;8.248;2023-02-28T15:46:03;22.50;30.10
30148;DHT22;16960;49.404;8.248;2023-02-28T15:48:34;22.50;30.20
30148;DHT22;16960;49.404;8.248;2023-02-28T15:51:08;22.50;30.20
30148;DHT22;16960;49.404;8.248;2023-02-28T15:53:37;22.50;30.20
30148;DHT22;16960;49.404;8.248;2023-02-28T15:56:17;22.50;30.20
30148;DHT22;16960;49.404;8.248;2023-02-28T15:58:45;22.50;30.20
30148;DHT22;16960;49.404;8.248;2023-02-28T16:01:23;22.50;30.30
30148;DHT22;16960;49.404;8.248;2023-02-28T16:03:52;22.50;30.30
30148;DHT22;16960;49.404;8.248;2023-02-28T16:06:33;22.50;30.30
30148;DHT22;16960;49.404;8.248;2023-02-28T16:09:00;22.50;30.30
30148;DHT22;16960;49.404;8.248;2023-02-28T16:11:27;22.50;30.40
30148;DHT22;16960;49.404;8.248;2023-02-28T16:13:56;22.50;30.40
30148;DHT22;16960;49.404;8.248;2023-02-28T16:16:25;22.50;30.40
30148;DHT22;16960;49.404;8.248;2023-02-28T16:18:52;22.50;30.40